createdAt,value
2019-05-23T00:01:14.077Z,6.10
2019-05-23T00:03:59.109Z,5.77
2019-05-23T00:06:37.610Z,5.80
2019-05-23T00:09:06.536Z,6.00
2019-05-23T00:11:53.056Z,5.53
2019-05-23T00:14:39.796Z,5.83
2019-05-23T00:17:11.026Z,5.13
2019-05-23T00:19:40.305Z,6.43
2019-05-23T00:22:09.194Z,5.30
2019-05-23T00:24:38.677Z,5.97
2019-05-23T00:27:08.832Z,5.67
2019-05-23T00:29:40.421Z,5.60
2019-05-23T00:32:19.276Z,5.30
2019-05-23T00:34:48.049Z,5.67
2019-05-23T00:37:16.292Z,5.70
2019-05-23T00:39:47.219Z,5.33
2019-05-23T00:42:15.837Z,5.77
2019-05-23T00:44:44.493Z,5.50
2019-05-23T00:47:13.442Z,4.90
2019-05-23T00:49:42.042Z,5.67
2019-05-23T00:52:10.697Z,5.90
2019-05-23T00:54:39.173Z,5.80
2019-05-23T00:57:07.416Z,6.20
2019-05-23T00:59:35.638Z,6.50
2019-05-23T01:02:05.213Z,5.33
2019-05-23T01:04:33.388Z,5.70
2019-05-23T01:07:01.733Z,6.43
2019-05-23T01:09:30.104Z,6.07
2019-05-23T01:11:59.553Z,6.17
2019-05-23T01:14:28.500Z,5.60
2019-05-23T01:16:57.213Z,5.77
2019-05-23T01:19:26.089Z,6.73
2019-05-23T01:21:58.931Z,5.73
2019-05-23T01:24:31.783Z,5.93
2019-05-23T01:26:59.982Z,5.57
2019-05-23T01:29:37.389Z,5.80
2019-05-23T01:32:00.481Z,5.80
2019-05-23T01:34:30.573Z,5.87
2019-05-23T01:36:58.780Z,6.50
2019-05-23T01:39:27.219Z,5.37
2019-05-23T01:41:55.416Z,6.50
2019-05-23T01:44:23.599Z,6.00
2019-05-23T01:46:51.825Z,6.00
2019-05-23T01:49:20.990Z,6.00
2019-05-23T01:51:49.541Z,5.63
2019-05-23T01:54:18.053Z,5.60
2019-05-23T01:56:46.333Z,5.00
2019-05-23T01:59:14.546Z,6.33
2019-05-23T02:01:42.820Z,5.70
2019-05-23T02:04:11.097Z,5.47
2019-05-23T02:06:39.594Z,6.00
2019-05-23T02:09:09.099Z,6.37
2019-05-23T02:11:37.667Z,5.40
2019-05-23T02:14:07.720Z,5.50
2019-05-23T02:16:36.382Z,5.60
2019-05-23T02:19:08.090Z,5.30
2019-05-23T02:21:36.761Z,5.33
2019-05-23T02:24:05.223Z,5.30
2019-05-23T02:26:35.229Z,4.73
2019-05-23T02:29:03.613Z,5.57
2019-05-23T02:31:32.666Z,6.13
2019-05-23T02:34:01.279Z,5.93
2019-05-23T02:36:30.448Z,6.40
2019-05-23T02:39:16.580Z,5.97
2019-05-23T02:41:58.590Z,5.30
2019-05-23T02:44:28.530Z,5.67
2019-05-23T02:47:04.262Z,6.27
2019-05-23T02:49:34.157Z,6.43
2019-05-23T02:52:05.593Z,5.47
2019-05-23T02:54:37.272Z,5.40
2019-05-23T02:57:04.675Z,5.43
2019-05-23T02:59:35.304Z,5.60
2019-05-23T03:02:26.346Z,5.67
2019-05-23T03:04:56.666Z,6.10
2019-05-23T03:07:27.088Z,6.03
2019-05-23T03:09:55.314Z,5.30
2019-05-23T03:12:25.512Z,6.00
2019-05-23T03:14:56.665Z,5.60
2019-05-23T03:17:25.091Z,5.67
2019-05-23T03:19:57.712Z,6.23
2019-05-23T03:22:28.138Z,6.40
2019-05-23T03:24:58.866Z,6.23
2019-05-23T03:27:27.073Z,6.50
2019-05-23T03:29:55.458Z,5.67
2019-05-23T03:32:25.378Z,6.60
2019-05-23T03:34:55.987Z,6.43
2019-05-23T03:37:24.840Z,6.57
2019-05-23T03:39:53.865Z,5.87
2019-05-23T03:42:22.910Z,6.30
2019-05-23T03:44:51.093Z,6.57
2019-05-23T03:47:20.558Z,6.93
2019-05-23T03:49:49.179Z,6.20
2019-05-23T03:52:18.936Z,6.30
2019-05-23T03:54:48.749Z,6.10
2019-05-23T03:57:18.593Z,6.03
2019-05-23T03:59:47.069Z,6.43
2019-05-23T04:02:17.478Z,6.13
2019-05-23T04:04:45.967Z,6.80
2019-05-23T04:07:14.988Z,5.60
2019-05-23T04:09:43.300Z,6.10
2019-05-23T04:12:12.692Z,6.13
2019-05-23T04:14:41.032Z,6.60
2019-05-23T04:17:09.381Z,7.03
2019-05-23T04:19:37.874Z,6.17
2019-05-23T04:22:07.195Z,6.60
2019-05-23T04:24:35.476Z,6.93
2019-05-23T04:27:03.745Z,6.67
2019-05-23T04:29:31.929Z,7.20
2019-05-23T04:32:07.736Z,7.20
2019-05-23T04:34:30.892Z,6.87
2019-05-23T04:36:59.073Z,7.70
2019-05-23T04:39:28.629Z,7.00
2019-05-23T04:41:57.069Z,8.33
2019-05-23T04:44:25.289Z,7.47
2019-05-23T04:46:53.763Z,7.60
2019-05-23T04:49:22.284Z,8.13
2019-05-23T04:51:51.159Z,8.17
2019-05-23T04:54:21.147Z,8.40
2019-05-23T04:56:49.365Z,8.23
2019-05-23T04:59:17.842Z,8.93
2019-05-23T05:01:46.905Z,8.20
2019-05-23T05:04:15.317Z,8.97
2019-05-23T05:06:43.574Z,8.30
2019-05-23T05:09:13.081Z,9.95
2019-05-23T05:11:41.481Z,8.47
2019-05-23T05:14:09.828Z,8.33
2019-05-23T05:16:38.086Z,8.87
2019-05-23T05:19:07.737Z,8.57
2019-05-23T05:21:36.428Z,8.00
2019-05-23T05:24:04.624Z,7.57
2019-05-23T05:26:32.860Z,8.00
2019-05-23T05:29:01.408Z,8.30
2019-05-23T05:31:29.634Z,8.40
2019-05-23T05:33:57.972Z,8.20
2019-05-23T05:36:26.192Z,8.70
2019-05-23T05:38:54.657Z,8.37
2019-05-23T05:41:23.088Z,7.70
2019-05-23T05:43:51.376Z,7.40
2019-05-23T05:46:19.623Z,7.60
2019-05-23T05:48:47.914Z,7.20
2019-05-23T05:51:16.107Z,7.30
2019-05-23T05:53:44.397Z,7.03
2019-05-23T05:56:12.876Z,6.80
2019-05-23T05:58:42.314Z,7.23
2019-05-23T06:01:11.742Z,6.87
2019-05-23T06:03:40.857Z,7.33
2019-05-23T06:06:13.680Z,6.93
2019-05-23T06:08:43.521Z,6.60
2019-05-23T06:11:12.256Z,6.60
2019-05-23T06:13:40.495Z,6.03
2019-05-23T06:16:08.777Z,7.10
2019-05-23T06:18:37.100Z,6.60
2019-05-23T06:21:06.027Z,6.73
2019-05-23T06:23:34.379Z,6.10
2019-05-23T06:26:02.592Z,6.60
2019-05-23T06:28:31.044Z,6.43
2019-05-23T06:31:00.429Z,6.40
2019-05-23T06:33:30.484Z,7.30
2019-05-23T06:35:59.417Z,6.23
2019-05-23T06:38:29.065Z,6.73
2019-05-23T06:40:58.118Z,6.40
2019-05-23T06:43:26.916Z,6.30
2019-05-23T06:45:55.114Z,5.93
2019-05-23T06:48:23.967Z,5.80
2019-05-23T06:50:52.170Z,6.03
2019-05-23T06:53:20.437Z,5.23
2019-05-23T06:55:48.618Z,5.67
2019-05-23T06:58:16.943Z,5.33
2019-05-23T07:00:45.703Z,4.73
2019-05-23T07:03:14.006Z,4.50
2019-05-23T07:05:42.785Z,5.47
2019-05-23T07:08:10.986Z,5.20
2019-05-23T07:10:40.035Z,4.83
2019-05-23T07:13:08.208Z,5.07
2019-05-23T07:15:36.486Z,4.20
2019-05-23T07:18:05.281Z,4.83
2019-05-23T07:20:33.696Z,4.33
2019-05-23T07:23:01.988Z,4.53
2019-05-23T07:25:30.490Z,4.03
2019-05-23T07:27:59.153Z,4.60
2019-05-23T07:30:27.526Z,3.93
2019-05-23T07:32:55.908Z,3.00
2019-05-23T07:35:24.352Z,2.80
2019-05-23T07:37:52.607Z,3.50
2019-05-23T07:40:22.640Z,3.07
2019-05-23T07:42:50.979Z,3.33
2019-05-23T07:45:26.954Z,3.10
2019-05-23T07:47:55.157Z,3.00
2019-05-23T07:50:23.424Z,2.80
2019-05-23T07:52:53.009Z,3.17
2019-05-23T07:55:38.194Z,3.07
2019-05-23T07:58:07.157Z,3.10
2019-05-23T08:00:37.477Z,3.47
2019-05-23T08:03:06.090Z,3.10
2019-05-23T08:05:34.519Z,3.37
2019-05-23T08:08:02.922Z,3.50
2019-05-23T08:10:34.155Z,3.40
2019-05-23T08:13:01.518Z,3.50
2019-05-23T08:15:30.418Z,3.50
2019-05-23T08:17:58.649Z,4.90
2019-05-23T08:20:26.953Z,3.43
2019-05-23T08:22:55.234Z,3.60
2019-05-23T08:25:23.461Z,3.60
2019-05-23T08:27:51.934Z,4.20
2019-05-23T08:30:20.164Z,4.17
2019-05-23T08:32:48.556Z,3.80
2019-05-23T08:35:18.084Z,3.83
2019-05-23T08:37:46.567Z,4.63
2019-05-23T08:40:15.585Z,3.70
2019-05-23T08:42:44.350Z,4.30
2019-05-23T08:45:12.708Z,3.80
2019-05-23T08:47:41.648Z,3.67
2019-05-23T08:50:11.080Z,3.87
2019-05-23T08:52:39.280Z,3.90
2019-05-23T08:55:21.104Z,3.40
2019-05-23T08:57:49.452Z,3.87
2019-05-23T09:00:18.025Z,3.60
2019-05-23T09:02:48.056Z,3.90
2019-05-23T09:05:17.436Z,3.43
2019-05-23T09:07:46.140Z,3.67
2019-05-23T09:10:14.404Z,3.47
2019-05-23T09:12:42.628Z,3.57
2019-05-23T09:15:11.017Z,3.20
2019-05-23T09:17:52.201Z,3.30
2019-05-23T09:20:10.621Z,3.60
2019-05-23T09:22:38.894Z,3.50
2019-05-23T09:25:07.962Z,3.73
2019-05-23T09:27:36.316Z,3.83
2019-05-23T09:30:07.049Z,3.90
2019-05-23T09:32:35.718Z,3.47
2019-05-23T09:35:19.754Z,2.70
2019-05-23T09:37:35.252Z,2.90
2019-05-23T09:40:05.509Z,3.50
2019-05-23T09:42:33.928Z,3.77
2019-05-23T09:45:02.185Z,3.97
2019-05-23T09:47:30.573Z,3.83
2019-05-23T09:49:58.789Z,3.40
2019-05-23T09:52:28.503Z,2.80
2019-05-23T09:54:56.706Z,4.10
2019-05-23T09:57:24.903Z,3.60
2019-05-23T09:59:56.791Z,3.90
2019-05-23T10:02:22.985Z,3.67
2019-05-23T10:04:51.265Z,3.13
2019-05-23T10:07:19.577Z,3.10
2019-05-23T10:09:47.793Z,3.10
2019-05-23T10:12:16.090Z,3.30
2019-05-23T10:14:44.287Z,4.30
2019-05-23T10:17:12.533Z,3.60
2019-05-23T10:19:40.750Z,2.90
2019-05-23T10:22:08.999Z,2.90
2019-05-23T10:24:37.252Z,3.33
2019-05-23T10:27:07.066Z,3.40
2019-05-23T10:29:35.249Z,3.10
2019-05-23T10:32:04.731Z,3.20
2019-05-23T10:34:33.029Z,2.50
2019-05-23T10:37:01.248Z,3.20
2019-05-23T10:39:29.908Z,3.80
2019-05-23T10:41:58.185Z,2.90
2019-05-23T10:44:26.517Z,2.80
2019-05-23T10:46:54.873Z,2.70
2019-05-23T10:49:23.136Z,2.77
2019-05-23T10:51:51.488Z,3.10
2019-05-23T10:54:20.216Z,2.70
2019-05-23T10:56:48.530Z,2.80
2019-05-23T10:59:16.893Z,3.10
2019-05-23T11:01:45.335Z,3.40
2019-05-23T11:04:13.669Z,2.50
2019-05-23T11:06:42.996Z,2.73
2019-05-23T11:09:12.430Z,3.10
2019-05-23T11:11:40.761Z,3.20
2019-05-23T11:14:09.832Z,3.27
2019-05-23T11:16:38.803Z,2.80
2019-05-23T11:19:07.960Z,3.27
2019-05-23T11:21:37.317Z,3.00
2019-05-23T11:24:05.749Z,3.40
2019-05-23T11:26:34.079Z,3.60
2019-05-23T11:29:02.447Z,3.80
2019-05-23T11:31:30.804Z,3.10
2019-05-23T11:33:59.149Z,3.50
2019-05-23T11:36:35.574Z,4.23
2019-05-23T11:38:57.533Z,4.00
2019-05-23T11:41:26.390Z,3.50
2019-05-23T11:43:54.658Z,3.13
2019-05-23T11:46:27.756Z,3.27
2019-05-23T11:48:56.121Z,3.03
2019-05-23T11:51:26.013Z,3.00
2019-05-23T11:54:06.580Z,3.60
2019-05-23T11:56:24.699Z,3.03
2019-05-23T11:58:52.947Z,3.50
2019-05-23T12:01:22.965Z,3.10
2019-05-23T12:03:59.261Z,3.37
2019-05-23T12:06:29.224Z,3.40
2019-05-23T12:08:57.561Z,3.00
2019-05-23T12:11:26.158Z,3.93
2019-05-23T12:13:54.578Z,3.23
2019-05-23T12:16:23.136Z,3.47
2019-05-23T12:18:52.167Z,3.43
2019-05-23T12:21:20.440Z,3.17
2019-05-23T12:23:48.795Z,3.00
2019-05-23T12:26:17.093Z,3.57
2019-05-23T12:28:45.474Z,3.30
2019-05-23T12:31:14.083Z,3.37
2019-05-23T12:33:42.424Z,3.70
2019-05-23T12:36:11.743Z,3.80
2019-05-23T12:38:40.079Z,3.67
2019-05-23T12:41:10.028Z,3.87
2019-05-23T12:43:38.305Z,3.33
2019-05-23T12:46:06.639Z,3.20
2019-05-23T12:48:36.595Z,3.40
2019-05-23T12:51:09.274Z,3.80
2019-05-23T12:53:37.585Z,3.43
2019-05-23T12:56:05.950Z,3.57
2019-05-23T12:58:35.114Z,3.67
2019-05-23T13:01:05.163Z,3.90
2019-05-23T13:03:34.151Z,3.77
2019-05-23T13:06:02.467Z,3.70
2019-05-23T13:08:30.801Z,3.37
2019-05-23T13:10:59.145Z,3.50
2019-05-23T13:13:27.823Z,3.80
2019-05-23T13:15:56.144Z,4.00
2019-05-23T13:18:24.565Z,3.80
2019-05-23T13:20:53.111Z,3.60
2019-05-23T13:23:21.702Z,3.60
2019-05-23T13:25:50.341Z,3.30
2019-05-23T13:28:18.743Z,3.45
2019-05-23T13:30:47.480Z,3.50
2019-05-23T13:33:16.079Z,2.35
2019-05-23T13:35:45.002Z,2.60
2019-05-23T13:38:13.350Z,2.60
2019-05-23T13:40:41.697Z,3.07
2019-05-23T13:43:10.023Z,2.60
2019-05-23T13:45:38.543Z,2.63
2019-05-23T13:48:07.088Z,2.40
2019-05-23T13:50:35.467Z,2.10
2019-05-23T13:53:04.099Z,2.50
2019-05-23T13:55:32.810Z,2.13
2019-05-23T13:58:01.256Z,2.17
2019-05-23T14:00:30.228Z,2.50
2019-05-23T14:02:58.708Z,2.20
2019-05-23T14:05:27.373Z,2.30
2019-05-23T14:08:10.706Z,1.90
2019-05-23T14:10:26.166Z,2.50
2019-05-23T14:12:54.487Z,2.40
2019-05-23T14:15:30.349Z,2.17
2019-05-23T14:17:58.701Z,1.90
2019-05-23T14:20:27.033Z,2.17
2019-05-23T14:23:02.520Z,2.00
2019-05-23T14:25:31.356Z,2.27
2019-05-23T14:28:06.857Z,1.73
2019-05-23T14:30:39.558Z,2.17
2019-05-23T14:33:27.214Z,2.00
2019-05-23T14:36:02.807Z,2.07
2019-05-23T14:38:36.758Z,2.30
2019-05-23T14:41:05.326Z,2.20
2019-05-23T14:43:33.728Z,1.97
2019-05-23T14:46:03.944Z,2.13
2019-05-23T14:48:49.480Z,1.97
2019-05-23T14:51:31.346Z,1.87
2019-05-23T14:54:10.474Z,2.00
2019-05-23T14:56:39.891Z,1.90
2019-05-23T14:59:08.231Z,1.93
2019-05-23T15:01:37.268Z,1.80
2019-05-23T15:04:06.041Z,1.80
2019-05-23T15:06:34.455Z,1.87
2019-05-23T15:09:02.886Z,1.60
2019-05-23T15:11:31.398Z,1.87
2019-05-23T15:14:00.019Z,1.70
2019-05-23T15:16:28.272Z,1.70
2019-05-23T15:18:56.718Z,1.75
2019-05-23T15:21:25.074Z,1.30
2019-05-23T15:23:53.317Z,1.80
2019-05-23T15:26:23.724Z,1.80
2019-05-23T15:28:51.614Z,2.23
2019-05-23T15:31:20.448Z,2.20
2019-05-23T15:33:48.900Z,1.90
2019-05-23T15:36:17.279Z,2.07
2019-05-23T15:38:45.729Z,2.23
2019-05-23T15:41:14.075Z,2.00
2019-05-23T15:43:42.362Z,1.77
2019-05-23T15:46:11.695Z,2.00
2019-05-23T15:48:40.693Z,1.97
2019-05-23T15:51:10.158Z,1.90
2019-05-23T15:53:58.455Z,1.73
2019-05-23T15:56:31.320Z,1.97
2019-05-23T15:59:03.997Z,1.80
2019-05-23T16:01:36.803Z,1.90
2019-05-23T16:04:06.844Z,1.90
2019-05-23T16:06:36.308Z,2.03
2019-05-23T16:09:07.792Z,2.23
2019-05-23T16:11:36.129Z,2.10
2019-05-23T16:14:04.771Z,1.90
2019-05-23T16:16:33.494Z,1.90
2019-05-23T16:19:01.843Z,2.10
2019-05-23T16:21:30.653Z,1.80
2019-05-23T16:24:00.721Z,2.07
2019-05-23T16:26:29.234Z,2.20
2019-05-23T16:28:57.559Z,2.40
2019-05-23T16:31:25.824Z,2.30
2019-05-23T16:33:54.183Z,2.40
2019-05-23T16:36:22.526Z,2.10
2019-05-23T16:38:50.788Z,2.37
2019-05-23T16:41:19.065Z,2.30
2019-05-23T16:43:47.439Z,2.50
2019-05-23T16:46:15.840Z,2.43
2019-05-23T16:48:44.158Z,2.13
2019-05-23T16:51:12.513Z,2.00
2019-05-23T16:53:40.941Z,2.00
2019-05-23T16:56:28.630Z,2.07
2019-05-23T16:59:04.609Z,2.30
2019-05-23T17:01:34.578Z,1.85
2019-05-23T17:04:19.660Z,2.20
2019-05-23T17:06:52.639Z,2.20
2019-05-23T17:09:38.893Z,2.60
2019-05-23T17:12:25.267Z,2.60
2019-05-23T17:14:58.161Z,2.13
2019-05-23T17:18:01.440Z,2.20
2019-05-23T17:20:32.169Z,2.50
2019-05-23T17:23:04.679Z,2.30
2019-05-23T17:25:46.339Z,2.40
2019-05-23T17:28:31.328Z,2.30
2019-05-23T17:31:03.805Z,2.40
2019-05-23T17:33:32.270Z,2.30
2019-05-23T17:36:00.595Z,2.67
2019-05-23T17:38:28.966Z,2.27
2019-05-23T17:40:57.526Z,2.20
2019-05-23T17:43:25.878Z,2.37
2019-05-23T17:45:54.207Z,2.10
2019-05-23T17:48:22.491Z,2.90
2019-05-23T17:50:50.840Z,2.90
2019-05-23T17:53:19.212Z,2.80
2019-05-23T17:55:47.695Z,2.90
2019-05-23T17:58:17.280Z,2.50
2019-05-23T18:00:47.427Z,2.87
2019-05-23T18:03:15.732Z,2.80
2019-05-23T18:08:12.882Z,2.27
2019-05-23T18:10:45.124Z,2.43
2019-05-23T18:13:13.012Z,2.43
2019-05-23T18:15:42.661Z,2.30
2019-05-23T18:18:11.168Z,2.60
2019-05-23T18:20:39.919Z,2.87
2019-05-23T18:23:10.248Z,2.43
2019-05-23T18:25:38.482Z,2.40
2019-05-23T18:28:08.069Z,2.70
2019-05-23T18:30:49.926Z,2.63
2019-05-23T18:33:18.852Z,2.90
2019-05-23T18:35:48.048Z,2.20
2019-05-23T18:38:16.711Z,2.53
2019-05-23T18:41:00.005Z,2.70
2019-05-23T18:43:15.405Z,2.60
2019-05-23T18:45:44.439Z,2.57
2019-05-23T18:48:12.864Z,3.10
2019-05-23T18:50:41.258Z,3.03
2019-05-23T18:53:09.897Z,3.30
2019-05-23T18:55:38.770Z,3.03
2019-05-23T18:58:07.627Z,3.07
2019-05-23T19:00:49.470Z,3.20
2019-05-23T19:03:17.956Z,3.00
2019-05-23T19:05:46.130Z,2.75
2019-05-23T19:08:14.407Z,3.20
2019-05-23T19:10:43.168Z,3.30
2019-05-23T19:13:11.785Z,3.10
2019-05-23T19:15:40.138Z,2.93
2019-05-23T19:18:08.698Z,3.50
2019-05-23T19:20:36.977Z,2.77
2019-05-23T19:23:05.262Z,3.93
2019-05-23T19:25:34.713Z,3.40
2019-05-23T19:28:04.367Z,3.80
2019-05-23T19:30:33.079Z,4.60
2019-05-23T19:33:01.289Z,7.60
2019-05-23T19:35:29.621Z,7.20
2019-05-23T19:37:57.862Z,6.33
2019-05-23T19:40:26.494Z,6.90
2019-05-23T19:42:54.848Z,7.63
2019-05-23T19:45:23.087Z,6.73
2019-05-23T19:47:51.340Z,6.10
2019-05-23T19:50:19.578Z,5.90
2019-05-23T19:52:47.794Z,5.43
2019-05-23T19:55:15.995Z,5.80
2019-05-23T19:57:44.173Z,5.10
2019-05-23T20:00:14.274Z,6.13
2019-05-23T20:02:47.305Z,5.80
2019-05-23T20:05:34.943Z,5.33
2019-05-23T20:08:03.277Z,4.87
2019-05-23T20:10:31.972Z,5.10
2019-05-23T20:13:00.194Z,4.83
2019-05-23T20:15:28.830Z,5.40
2019-05-23T20:17:57.013Z,4.40
2019-05-23T20:20:25.787Z,4.47
2019-05-23T20:22:54.190Z,5.57
2019-05-23T20:25:22.652Z,4.73
2019-05-23T20:27:50.841Z,4.70
2019-05-23T20:30:38.902Z,4.73
2019-05-23T20:33:07.589Z,4.93
2019-05-23T20:35:35.874Z,5.07
2019-05-23T20:38:04.107Z,4.53
2019-05-23T20:40:32.776Z,5.00
2019-05-23T20:43:02.681Z,5.10
2019-05-23T20:45:30.987Z,4.40
2019-05-23T20:47:59.196Z,4.40
2019-05-23T20:50:27.369Z,5.00
2019-05-23T20:52:55.554Z,4.87
2019-05-23T20:55:23.753Z,4.63
2019-05-23T20:57:51.941Z,5.20
2019-05-23T21:00:33.715Z,4.80
2019-05-23T21:03:02.164Z,4.63
2019-05-23T21:05:32.572Z,5.00
2019-05-23T21:08:00.801Z,5.10
2019-05-23T21:10:36.648Z,5.50
2019-05-23T21:13:04.836Z,5.30
2019-05-23T21:15:33.057Z,4.90
2019-05-23T21:18:01.338Z,5.60
2019-05-23T21:20:29.537Z,5.00
2019-05-23T21:22:57.795Z,5.70
2019-05-23T21:25:26.769Z,5.30
2019-05-23T21:27:54.936Z,5.20
2019-05-23T21:30:23.111Z,5.50
2019-05-23T21:32:51.321Z,5.10
2019-05-23T21:35:19.693Z,5.00
2019-05-23T21:37:47.908Z,4.50
2019-05-23T21:40:30.241Z,5.13
2019-05-23T21:42:58.454Z,5.43
2019-05-23T21:45:26.781Z,4.60
2019-05-23T21:47:54.981Z,4.60
2019-05-23T21:50:23.201Z,7.37
2019-05-23T21:52:51.401Z,5.47
2019-05-23T21:55:21.147Z,5.43
2019-05-23T21:57:49.396Z,4.97
2019-05-23T22:00:20.748Z,5.37
2019-05-23T22:02:48.962Z,5.20
2019-05-23T22:05:18.730Z,4.60
2019-05-23T22:07:47.384Z,4.93
2019-05-23T22:10:15.885Z,4.83
2019-05-23T22:12:44.160Z,4.90
2019-05-23T22:15:14.266Z,5.17
2019-05-23T22:17:42.970Z,5.03
2019-05-23T22:20:11.428Z,4.77
2019-05-23T22:22:39.639Z,4.90
2019-05-23T22:25:08.061Z,5.13
2019-05-23T22:27:36.269Z,4.80
2019-05-23T22:30:06.027Z,4.90
2019-05-23T22:32:34.211Z,5.13
2019-05-23T22:35:04.265Z,5.00
2019-05-23T22:37:32.502Z,4.73
2019-05-23T22:40:00.764Z,5.20
2019-05-23T22:42:29.084Z,5.67
2019-05-23T22:44:57.264Z,5.97
2019-05-23T22:47:25.737Z,6.03
2019-05-23T22:49:54.937Z,5.77
2019-05-23T22:52:23.108Z,5.90
2019-05-23T22:54:51.341Z,5.40
2019-05-23T22:57:19.674Z,5.67
2019-05-23T22:59:47.866Z,6.10
2019-05-23T23:02:17.034Z,6.00
2019-05-23T23:04:46.180Z,5.60
2019-05-23T23:07:15.135Z,6.30
2019-05-23T23:09:43.320Z,5.60
2019-05-23T23:12:11.539Z,6.30
2019-05-23T23:14:39.743Z,5.70
2019-05-23T23:17:07.944Z,6.73
2019-05-23T23:19:36.177Z,6.70
2019-05-23T23:22:06.233Z,6.37
2019-05-23T23:24:34.409Z,6.77
2019-05-23T23:27:02.592Z,6.03
2019-05-23T23:29:30.855Z,6.20
2019-05-23T23:31:59.117Z,6.30
2019-05-23T23:34:27.295Z,5.83
2019-05-23T23:36:55.469Z,5.73
2019-05-23T23:39:23.778Z,6.43
2019-05-23T23:41:51.955Z,6.87
2019-05-23T23:44:21.828Z,6.20
2019-05-23T23:47:08.224Z,7.50
2019-05-23T23:49:54.651Z,7.63
2019-05-23T23:52:41.091Z,7.33
2019-05-23T23:55:27.301Z,6.80
2019-05-23T23:58:00.857Z,6.83
